Fairplay, Pennsylvania
Current Conditions -  °F | °C
As of 3:53 PM on Saturday 22 Nov 2014 (Local Time) from KRYT Reporting Station
Overcast Overcast  
Wind Chill: 42°   Ceiling: 6000
Heat Index: 42°   Visibility: 10mi
Dew Point: 16°   Wind: 0mph
Humidity: 35%   Direction: NA
Pressure: 30.25"   Gusts: NA
Location:  39.8288°N, 77.2253°W
Report Text: KRYT 222053Z AUTO 00000KT 10SM BKN060 OVC075 06/M09 A3025 RMK AO2 SLP260 T00561089 56016 $
Loading
Personal Weather Stations






























Interactive Weather Map New forecast layout! Learn more

10-Day Weather Forecast

Advertisements
Track Severe Weather on mobile